sensor_id;sensor_type;location;lat;lon;timestamp;pressure;altitude;pressure_sealevel;temperature;humidity
74659;BME280;63186;51.204;6.536;2023-03-17T00:00:04;100567.34;;;7.21;67.29
74659;BME280;63186;51.204;6.536;2023-03-17T00:02:29;100573.19;;;7.15;67.65
74659;BME280;63186;51.204;6.536;2023-03-17T00:04:55;100579.25;;;7.12;67.75
74659;BME280;63186;51.204;6.536;2023-03-17T00:07:20;100556.00;;;7.09;67.88
74659;BME280;63186;51.204;6.536;2023-03-17T00:09:46;100555.50;;;7.07;68.04
74659;BME280;63186;51.204;6.536;2023-03-17T00:12:16;100541.88;;;7.02;67.98
74659;BME280;63186;51.204;6.536;2023-03-17T00:14:41;100554.97;;;7.05;68.46
74659;BME280;63186;51.204;6.536;2023-03-17T00:17:11;100552.00;;;7.01;68.17
74659;BME280;63186;51.204;6.536;2023-03-17T00:19:38;100549.03;;;6.98;68.65
74659;BME280;63186;51.204;6.536;2023-03-17T00:22:13;100548.50;;;6.96;68.10
74659;BME280;63186;51.204;6.536;2023-03-17T00:24:41;100543.56;;;6.98;68.25
74659;BME280;63186;51.204;6.536;2023-03-17T00:27:10;100542.97;;;7.01;68.06
74659;BME280;63186;51.204;6.536;2023-03-17T00:29:36;100539.38;;;7.05;68.01
74659;BME280;63186;51.204;6.536;2023-03-17T00:32:02;100539.38;;;7.05;67.68
74659;BME280;63186;51.204;6.536;2023-03-17T00:34:27;100549.66;;;7.14;67.16
74659;BME280;63186;51.204;6.536;2023-03-17T00:36:53;100539.88;;;7.07;67.12
74659;BME280;63186;51.204;6.536;2023-03-17T00:39:20;100543.94;;;7.10;67.16
74659;BME280;63186;51.204;6.536;2023-03-17T00:41:45;100541.75;;;7.12;67.11
74659;BME280;63186;51.204;6.536;2023-03-17T00:44:11;100527.47;;;7.15;66.99
74659;BME280;63186;51.204;6.536;2023-03-17T00:46:37;100517.47;;;7.05;67.59
74659;BME280;63186;51.204;6.536;2023-03-17T00:49:13;100512.34;;;6.99;67.54
74659;BME280;63186;51.204;6.536;2023-03-17T00:51:39;100512.63;;;6.97;67.45
74659;BME280;63186;51.204;6.536;2023-03-17T00:54:05;100513.47;;;6.98;67.73
74659;BME280;63186;51.204;6.536;2023-03-17T00:56:30;100508.00;;;6.98;67.45
74659;BME280;63186;51.204;6.536;2023-03-17T00:58:56;100512.34;;;6.99;67.37
74659;BME280;63186;51.204;6.536;2023-03-17T01:01:21;100493.78;;;6.96;67.68
74659;BME280;63186;51.204;6.536;2023-03-17T01:03:47;100493.41;;;7.02;67.33
74659;BME280;63186;51.204;6.536;2023-03-17T01:06:13;100487.13;;;7.02;67.55
74659;BME280;63186;51.204;6.536;2023-03-17T01:08:40;100481.44;;;6.98;67.35
74659;BME280;63186;51.204;6.536;2023-03-17T01:11:05;100476.19;;;7.02;67.54
74659;BME280;63186;51.204;6.536;2023-03-17T01:13:31;100476.78;;;6.99;67.51
74659;BME280;63186;51.204;6.536;2023-03-17T01:15:56;100472.13;;;6.99;67.25
74659;BME280;63186;51.204;6.536;2023-03-17T01:18:23;100478.63;;;7.03;67.05
74659;BME280;63186;51.204;6.536;2023-03-17T01:20:49;100455.34;;;7.06;66.63
74659;BME280;63186;51.204;6.536;2023-03-17T01:23:15;100452.81;;;7.10;66.88
74659;BME280;63186;51.204;6.536;2023-03-17T01:25:42;100445.75;;;7.03;67.21
74659;BME280;63186;51.204;6.536;2023-03-17T01:28:12;100442.31;;;6.98;67.32
74659;BME280;63186;51.204;6.536;2023-03-17T01:30:38;100430.06;;;6.90;68.04
74659;BME280;63186;51.204;6.536;2023-03-17T01:33:06;100429.13;;;6.81;68.21
74659;BME280;63186;51.204;6.536;2023-03-17T01:35:33;100432.41;;;6.78;68.14
74659;BME280;63186;51.204;6.536;2023-03-17T01:37:59;100430.28;;;6.75;68.45
74659;BME280;63186;51.204;6.536;2023-03-17T01:40:31;100448.56;;;6.79;68.25
74659;BME280;63186;51.204;6.536;2023-03-17T01:43:19;100443.59;;;6.82;68.47
74659;BME280;63186;51.204;6.536;2023-03-17T01:46:23;100443.47;;;6.73;68.34
74659;BME280;63186;51.204;6.536;2023-03-17T01:51:29;100452.88;;;6.62;69.12
74659;BME280;63186;51.204;6.536;2023-03-17T01:53:58;100432.16;;;6.56;69.51
74659;BME280;63186;51.204;6.536;2023-03-17T01:56:24;100441.13;;;6.61;69.19
74659;BME280;63186;51.204;6.536;2023-03-17T01:58:51;100439.66;;;6.69;68.92
74659;BME280;63186;51.204;6.536;2023-03-17T02:01:25;100452.22;;;6.70;68.84
74659;BME280;63186;51.204;6.536;2023-03-17T02:03:54;100442.91;;;6.71;68.76
74659;BME280;63186;51.204;6.536;2023-03-17T02:06:19;100449.19;;;6.71;68.71
74659;BME280;63186;51.204;6.536;2023-03-17T02:08:44;100448.38;;;6.71;68.80
74659;BME280;63186;51.204;6.536;2023-03-17T02:11:10;100448.13;;;6.72;68.82
74659;BME280;63186;51.204;6.536;2023-03-17T02:13:36;100446.59;;;6.61;69.24
74659;BME280;63186;51.204;6.536;2023-03-17T02:16:01;100433.50;;;6.58;69.68
74659;BME280;63186;51.204;6.536;2023-03-17T02:18:28;100438.50;;;6.51;69.58
74659;BME280;63186;51.204;6.536;2023-03-17T02:23:23;100439.56;;;6.55;69.56
74659;BME280;63186;51.204;6.536;2023-03-17T02:25:49;100423.41;;;6.59;69.25
74659;BME280;63186;51.204;6.536;2023-03-17T02:28:23;100420.13;;;6.57;69.27
74659;BME280;63186;51.204;6.536;2023-03-17T02:30:50;100424.63;;;6.47;70.21
74659;BME280;63186;51.204;6.536;2023-03-17T02:33:16;100421.59;;;6.49;70.11
74659;BME280;63186;51.204;6.536;2023-03-17T02:35:42;100419.38;;;6.51;69.44
74659;BME280;63186;51.204;6.536;2023-03-17T02:38:08;100420.53;;;6.45;69.98
74659;BME280;63186;51.204;6.536;2023-03-17T02:40:33;100422.53;;;6.39;70.32
74659;BME280;63186;51.204;6.536;2023-03-17T02:42:59;100419.84;;;6.34;70.60
74659;BME280;63186;51.204;6.536;2023-03-17T02:45:24;100409.44;;;6.36;70.09
74659;BME280;63186;51.204;6.536;2023-03-17T02:47:50;100409.84;;;6.24;71.08
74659;BME280;63186;51.204;6.536;2023-03-17T02:50:22;100408.00;;;6.20;71.53
74659;BME280;63186;51.204;6.536;2023-03-17T02:52:48;100415.66;;;6.18;71.57
74659;BME280;63186;51.204;6.536;2023-03-17T02:55:14;100412.91;;;6.18;71.26
74659;BME280;63186;51.204;6.536;2023-03-17T02:57:40;100411.25;;;6.22;71.00
74659;BME280;63186;51.204;6.536;2023-03-17T03:00:06;100421.16;;;6.13;71.50
74659;BME280;63186;51.204;6.536;2023-03-17T03:02:34;100415.19;;;6.11;71.88
74659;BME280;63186;51.204;6.536;2023-03-17T03:05:00;100413.22;;;6.16;71.64
74659;BME280;63186;51.204;6.536;2023-03-17T03:07:25;100411.34;;;6.12;71.84
74659;BME280;63186;51.204;6.536;2023-03-17T03:09:50;100408.44;;;6.03;72.08
74659;BME280;63186;51.204;6.536;2023-03-17T03:12:16;100416.88;;;6.07;72.09
74659;BME280;63186;51.204;6.536;2023-03-17T03:14:41;100410.75;;;5.91;72.04
74659;BME280;63186;51.204;6.536;2023-03-17T03:17:07;100419.59;;;6.07;71.85
74659;BME280;63186;51.204;6.536;2023-03-17T03:19:33;100421.75;;;6.10;71.60
74659;BME280;63186;51.204;6.536;2023-03-17T03:21:59;100413.09;;;6.03;71.89
74659;BME280;63186;51.204;6.536;2023-03-17T03:24:24;100401.69;;;5.95;72.44
74659;BME280;63186;51.204;6.536;2023-03-17T03:26:49;100409.94;;;5.85;72.87
74659;BME280;63186;51.204;6.536;2023-03-17T03:29:14;100409.38;;;5.93;72.38
74659;BME280;63186;51.204;6.536;2023-03-17T03:31:40;100403.78;;;6.04;71.77
74659;BME280;63186;51.204;6.536;2023-03-17T03:34:06;100394.00;;;5.97;72.23
74659;BME280;63186;51.204;6.536;2023-03-17T03:36:31;100401.19;;;5.88;72.83
74659;BME280;63186;51.204;6.536;2023-03-17T03:38:57;100404.44;;;5.90;72.71
74659;BME280;63186;51.204;6.536;2023-03-17T03:41:23;100394.59;;;5.89;72.30
74659;BME280;63186;51.204;6.536;2023-03-17T03:43:49;100402.00;;;5.89;72.97
74659;BME280;63186;51.204;6.536;2023-03-17T03:46:14;100408.59;;;5.83;73.32
74659;BME280;63186;51.204;6.536;2023-03-17T03:48:39;100417.31;;;5.85;73.16
74659;BME280;63186;51.204;6.536;2023-03-17T03:51:05;100424.13;;;5.87;72.92
74659;BME280;63186;51.204;6.536;2023-03-17T03:53:30;100421.97;;;5.84;72.88
74659;BME280;63186;51.204;6.536;2023-03-17T03:55:56;100424.94;;;5.88;73.05
74659;BME280;63186;51.204;6.536;2023-03-17T03:58:21;100433.16;;;5.88;72.90
74659;BME280;63186;51.204;6.536;2023-03-17T04:00:47;100434.47;;;5.90;72.68
74659;BME280;63186;51.204;6.536;2023-03-17T04:03:14;100442.06;;;5.98;71.97
74659;BME280;63186;51.204;6.536;2023-03-17T04:05:40;100436.09;;;5.96;72.30
74659;BME280;63186;51.204;6.536;2023-03-17T04:08:06;100425.22;;;5.91;72.50
74659;BME280;63186;51.204;6.536;2023-03-17T04:10:31;100422.22;;;5.88;72.90
74659;BME280;63186;51.204;6.536;2023-03-17T04:12:57;100416.44;;;5.94;72.47
74659;BME280;63186;51.204;6.536;2023-03-17T04:15:22;100435.84;;;5.93;72.72
74659;BME280;63186;51.204;6.536;2023-03-17T04:17:48;100421.94;;;5.89;72.87
74659;BME280;63186;51.204;6.536;2023-03-17T04:20:14;100416.19;;;5.91;72.99
74659;BME280;63186;51.204;6.536;2023-03-17T04:22:40;100419.50;;;5.88;72.83
74659;BME280;63186;51.204;6.536;2023-03-17T04:25:07;100422.47;;;5.86;73.53
74659;BME280;63186;51.204;6.536;2023-03-17T04:27:33;100414.63;;;5.80;73.45
74659;BME280;63186;51.204;6.536;2023-03-17T04:29:58;100416.00;;;5.82;72.77
74659;BME280;63186;51.204;6.536;2023-03-17T04:32:23;100418.38;;;5.89;72.95
74659;BME280;63186;51.204;6.536;2023-03-17T04:34:49;100415.91;;;5.92;72.89
74659;BME280;63186;51.204;6.536;2023-03-17T04:37:14;100423.56;;;5.90;72.88
74659;BME280;63186;51.204;6.536;2023-03-17T04:39:39;100411.56;;;5.86;72.70
74659;BME280;63186;51.204;6.536;2023-03-17T04:42:06;100420.84;;;5.85;73.30
74659;BME280;63186;51.204;6.536;2023-03-17T04:44:32;100411.91;;;5.80;73.20
74659;BME280;63186;51.204;6.536;2023-03-17T04:46:58;100408.09;;;5.81;73.73
74659;BME280;63186;51.204;6.536;2023-03-17T04:49:23;100399.94;;;5.76;73.76
74659;BME280;63186;51.204;6.536;2023-03-17T04:51:49;100408.09;;;5.81;73.55
74659;BME280;63186;51.204;6.536;2023-03-17T04:54:14;100407.59;;;5.73;73.76
74659;BME280;63186;51.204;6.536;2023-03-17T04:56:40;100410.81;;;5.81;73.59
74659;BME280;63186;51.204;6.536;2023-03-17T04:59:06;100406.97;;;5.82;73.38
74659;BME280;63186;51.204;6.536;2023-03-17T05:01:31;100415.19;;;5.82;73.41
74659;BME280;63186;51.204;6.536;2023-03-17T05:03:57;100416.50;;;5.84;73.35
74659;BME280;63186;51.204;6.536;2023-03-17T05:06:22;100419.28;;;5.79;73.59
74659;BME280;63186;51.204;6.536;2023-03-17T05:08:47;100414.69;;;5.75;73.67
74659;BME280;63186;51.204;6.536;2023-03-17T05:11:13;100420.72;;;5.71;73.96
74659;BME280;63186;51.204;6.536;2023-03-17T05:13:39;100418.31;;;5.65;74.30
74659;BME280;63186;51.204;6.536;2023-03-17T05:16:05;100417.00;;;5.62;74.39
74659;BME280;63186;51.204;6.536;2023-03-17T05:18:31;100421.34;;;5.63;74.25
74659;BME280;63186;51.204;6.536;2023-03-17T05:20:57;100426.75;;;5.68;73.96
74659;BME280;63186;51.204;6.536;2023-03-17T05:23:22;100426.50;;;5.65;73.90
74659;BME280;63186;51.204;6.536;2023-03-17T05:25:48;100431.16;;;5.64;74.06
74659;BME280;63186;51.204;6.536;2023-03-17T05:28:14;100430.63;;;5.62;74.48
74659;BME280;63186;51.204;6.536;2023-03-17T05:30:39;100429.28;;;5.60;74.76
74659;BME280;63186;51.204;6.536;2023-03-17T05:33:05;100428.19;;;5.61;74.72
74659;BME280;63186;51.204;6.536;2023-03-17T05:35:30;100421.84;;;5.65;74.26
74659;BME280;63186;51.204;6.536;2023-03-17T05:37:55;100424.38;;;5.62;74.21
74659;BME280;63186;51.204;6.536;2023-03-17T05:40:21;100411.84;;;5.56;74.61
74659;BME280;63186;51.204;6.536;2023-03-17T05:42:48;100412.97;;;5.55;74.69
74659;BME280;63186;51.204;6.536;2023-03-17T05:45:14;100407.81;;;5.48;75.29
74659;BME280;63186;51.204;6.536;2023-03-17T05:47:40;100412.69;;;5.51;75.07
74659;BME280;63186;51.204;6.536;2023-03-17T05:50:06;100412.41;;;5.53;74.89
74659;BME280;63186;51.204;6.536;2023-03-17T05:52:32;100411.31;;;5.54;74.85
74659;BME280;63186;51.204;6.536;2023-03-17T05:54:57;100401.22;;;5.54;74.73
74659;BME280;63186;51.204;6.536;2023-03-17T05:57:22;100396.00;;;5.58;74.65
74659;BME280;63186;51.204;6.536;2023-03-17T05:59:48;100393.84;;;5.55;75.00
74659;BME280;63186;51.204;6.536;2023-03-17T06:02:14;100412.91;;;5.60;75.29
74659;BME280;63186;51.204;6.536;2023-03-17T06:04:40;100405.81;;;5.59;74.75
74659;BME280;63186;51.204;6.536;2023-03-17T06:07:06;100405.78;;;5.64;74.67
74659;BME280;63186;51.204;6.536;2023-03-17T06:09:33;100406.06;;;5.62;74.87
74659;BME280;63186;51.204;6.536;2023-03-17T06:11:59;100407.06;;;5.71;74.61
74659;BME280;63186;51.204;6.536;2023-03-17T06:14:25;100399.97;;;5.70;74.50
74659;BME280;63186;51.204;6.536;2023-03-17T06:16:50;100401.78;;;5.80;74.18
74659;BME280;63186;51.204;6.536;2023-03-17T06:19:16;100403.38;;;5.86;73.93
74659;BME280;63186;51.204;6.536;2023-03-17T06:21:41;100394.34;;;5.91;73.88
74659;BME280;63186;51.204;6.536;2023-03-17T06:24:07;100368.38;;;5.93;73.42
74659;BME280;63186;51.204;6.536;2023-03-17T06:26:33;100395.63;;;5.98;73.27
74659;BME280;63186;51.204;6.536;2023-03-17T06:28:59;100393.63;;;6.09;73.17
74659;BME280;63186;51.204;6.536;2023-03-17T06:31:25;100388.63;;;6.16;73.26
74659;BME280;63186;51.204;6.536;2023-03-17T06:33:51;100381.69;;;6.24;72.58
74659;BME280;63186;51.204;6.536;2023-03-17T06:36:17;100387.00;;;6.39;71.93
74659;BME280;63186;51.204;6.536;2023-03-17T06:38:42;100391.16;;;6.56;71.48
74659;BME280;63186;51.204;6.536;2023-03-17T06:41:08;100393.69;;;6.71;70.57
74659;BME280;63186;51.204;6.536;2023-03-17T06:43:33;100411.59;;;7.01;70.02
74659;BME280;63186;51.204;6.536;2023-03-17T06:45:59;100408.56;;;7.21;69.41
74659;BME280;63186;51.204;6.536;2023-03-17T06:48:25;100411.53;;;7.25;69.03
74659;BME280;63186;51.204;6.536;2023-03-17T06:50:51;100410.84;;;7.33;68.97
74659;BME280;63186;51.204;6.536;2023-03-17T06:53:16;100405.00;;;7.40;67.74
74659;BME280;63186;51.204;6.536;2023-03-17T06:55:41;100410.53;;;7.53;67.71
74659;BME280;63186;51.204;6.536;2023-03-17T06:58:07;100415.53;;;7.65;67.19
74659;BME280;63186;51.204;6.536;2023-03-17T07:00:34;100414.28;;;7.90;66.25
74659;BME280;63186;51.204;6.536;2023-03-17T07:03:00;100407.00;;;8.27;65.04
74659;BME280;63186;51.204;6.536;2023-03-17T07:05:25;100401.44;;;8.59;64.22
74659;BME280;63186;51.204;6.536;2023-03-17T07:07:51;100418.19;;;8.85;63.45
74659;BME280;63186;51.204;6.536;2023-03-17T07:10:16;100417.28;;;8.90;62.47
74659;BME280;63186;51.204;6.536;2023-03-17T07:12:42;100420.31;;;9.02;62.20
74659;BME280;63186;51.204;6.536;2023-03-17T07:15:08;100421.94;;;9.03;62.01
74659;BME280;63186;51.204;6.536;2023-03-17T07:17:33;100424.75;;;9.12;62.22
74659;BME280;63186;51.204;6.536;2023-03-17T07:19:59;100431.03;;;9.12;62.41
74659;BME280;63186;51.204;6.536;2023-03-17T07:22:24;100418.22;;;9.21;62.28
74659;BME280;63186;51.204;6.536;2023-03-17T07:24:50;100423.03;;;9.38;61.81
74659;BME280;63186;51.204;6.536;2023-03-17T07:27:16;100417.41;;;9.43;62.02
74659;BME280;63186;51.204;6.536;2023-03-17T07:29:41;100414.06;;;9.46;61.72
74659;BME280;63186;51.204;6.536;2023-03-17T07:32:07;100414.19;;;9.41;61.06
74659;BME280;63186;51.204;6.536;2023-03-17T07:34:34;100410.09;;;9.39;60.71
74659;BME280;63186;51.204;6.536;2023-03-17T07:37:00;100409.91;;;9.58;59.95
74659;BME280;63186;51.204;6.536;2023-03-17T07:39:25;100415.91;;;9.82;60.91
74659;BME280;63186;51.204;6.536;2023-03-17T07:41:51;100406.53;;;9.83;59.85
74659;BME280;63186;51.204;6.536;2023-03-17T07:44:20;100411.34;;;9.77;60.21
74659;BME280;63186;51.204;6.536;2023-03-17T07:46:47;100411.66;;;9.76;61.22
74659;BME280;63186;51.204;6.536;2023-03-17T07:49:12;100412.06;;;9.61;61.13
74659;BME280;63186;51.204;6.536;2023-03-17T07:51:38;100409.16;;;9.43;61.90
74659;BME280;63186;51.204;6.536;2023-03-17T07:54:07;100408.84;;;9.22;61.57
74659;BME280;63186;51.204;6.536;2023-03-17T07:56:32;100406.66;;;9.11;62.97
74659;BME280;63186;51.204;6.536;2023-03-17T07:58:58;100404.03;;;8.92;63.92
74659;BME280;63186;51.204;6.536;2023-03-17T08:01:25;100405.59;;;8.84;64.42
74659;BME280;63186;51.204;6.536;2023-03-17T08:03:51;100396.84;;;8.82;64.46
74659;BME280;63186;51.204;6.536;2023-03-17T08:06:16;100401.72;;;8.85;64.88
74659;BME280;63186;51.204;6.536;2023-03-17T08:08:41;100403.22;;;8.91;64.63
74659;BME280;63186;51.204;6.536;2023-03-17T08:11:07;100411.38;;;8.96;63.91
74659;BME280;63186;51.204;6.536;2023-03-17T08:13:33;100416.63;;;9.07;63.42
74659;BME280;63186;51.204;6.536;2023-03-17T08:15:59;100422.47;;;9.28;63.66
74659;BME280;63186;51.204;6.536;2023-03-17T08:18:25;100423.44;;;9.45;62.63
74659;BME280;63186;51.204;6.536;2023-03-17T08:20:50;100420.31;;;9.61;62.11
74659;BME280;63186;51.204;6.536;2023-03-17T08:23:19;100422.72;;;9.85;62.47
74659;BME280;63186;51.204;6.536;2023-03-17T08:25:46;100418.63;;;10.04;60.74
74659;BME280;63186;51.204;6.536;2023-03-17T08:28:12;100417.06;;;10.12;60.09
74659;BME280;63186;51.204;6.536;2023-03-17T08:30:39;100412.72;;;10.20;59.99
74659;BME280;63186;51.204;6.536;2023-03-17T08:33:05;100438.22;;;10.34;60.48
74659;BME280;63186;51.204;6.536;2023-03-17T08:35:30;100435.00;;;10.41;59.82
74659;BME280;63186;51.204;6.536;2023-03-17T08:37:55;100424.81;;;10.41;60.16
74659;BME280;63186;51.204;6.536;2023-03-17T08:40:21;100416.69;;;10.36;59.64
74659;BME280;63186;51.204;6.536;2023-03-17T08:42:47;100417.47;;;10.28;60.68
74659;BME280;63186;51.204;6.536;2023-03-17T08:45:15;100412.31;;;10.35;60.79
74659;BME280;63186;51.204;6.536;2023-03-17T08:47:40;100402.09;;;10.27;60.93
74659;BME280;63186;51.204;6.536;2023-03-17T08:50:09;100407.66;;;10.13;60.64
74659;BME280;63186;51.204;6.536;2023-03-17T08:52:35;100407.34;;;10.15;60.50
74659;BME280;63186;51.204;6.536;2023-03-17T08:55:01;100407.13;;;10.33;60.91
74659;BME280;63186;51.204;6.536;2023-03-17T08:57:27;100404.13;;;10.44;60.50
74659;BME280;63186;51.204;6.536;2023-03-17T08:59:53;100399.56;;;10.48;59.47
74659;BME280;63186;51.204;6.536;2023-03-17T09:02:18;100391.03;;;10.58;60.04
74659;BME280;63186;51.204;6.536;2023-03-17T09:04:44;100385.88;;;10.74;59.47
74659;BME280;63186;51.204;6.536;2023-03-17T09:07:11;100397.41;;;10.93;59.55
74659;BME280;63186;51.204;6.536;2023-03-17T09:09:37;100408.94;;;11.04;59.15
74659;BME280;63186;51.204;6.536;2023-03-17T09:12:04;100403.94;;;11.23;59.69
74659;BME280;63186;51.204;6.536;2023-03-17T09:14:33;100392.06;;;11.57;58.60
74659;BME280;63186;51.204;6.536;2023-03-17T09:16:59;100401.59;;;11.94;56.91
74659;BME280;63186;51.204;6.536;2023-03-17T09:19:25;100403.34;;;12.75;54.93
74659;BME280;63186;51.204;6.536;2023-03-17T09:21:50;100409.66;;;13.06;54.13
74659;BME280;63186;51.204;6.536;2023-03-17T09:24:17;100406.41;;;13.33;52.80
74659;BME280;63186;51.204;6.536;2023-03-17T09:26:42;100408.25;;;13.62;52.80
74659;BME280;63186;51.204;6.536;2023-03-17T09:29:08;100409.59;;;13.56;51.37
74659;BME280;63186;51.204;6.536;2023-03-17T09:31:33;100408.19;;;13.71;51.31
74659;BME280;63186;51.204;6.536;2023-03-17T09:34:01;100401.69;;;13.67;52.04
74659;BME280;63186;51.204;6.536;2023-03-17T09:36:28;100401.31;;;13.89;50.35
74659;BME280;63186;51.204;6.536;2023-03-17T09:38:53;100403.53;;;14.08;49.61
74659;BME280;63186;51.204;6.536;2023-03-17T09:41:47;100404.22;;;14.05;51.02
74659;BME280;63186;51.204;6.536;2023-03-17T09:44:38;100407.97;;;13.55;51.71
74659;BME280;63186;51.204;6.536;2023-03-17T09:50:03;100398.03;;;13.75;52.14
74659;BME280;63186;51.204;6.536;2023-03-17T09:52:33;100397.19;;;14.07;51.61
74659;BME280;63186;51.204;6.536;2023-03-17T09:55:02;100404.34;;;14.21;51.60
74659;BME280;63186;51.204;6.536;2023-03-17T09:57:33;100410.19;;;13.95;52.29
74659;BME280;63186;51.204;6.536;2023-03-17T10:03:21;100405.53;;;12.91;55.25
74659;BME280;63186;51.204;6.536;2023-03-17T10:05:47;100405.09;;;12.59;56.65
74659;BME280;63186;51.204;6.536;2023-03-17T10:08:29;100403.75;;;12.65;55.57
74659;BME280;63186;51.204;6.536;2023-03-17T10:16:11;100427.09;;;13.48;54.04
74659;BME280;63186;51.204;6.536;2023-03-17T10:18:58;100424.25;;;13.56;53.26
74659;BME280;63186;51.204;6.536;2023-03-17T10:21:27;100431.16;;;13.83;53.75
74659;BME280;63186;51.204;6.536;2023-03-17T10:23:55;100421.50;;;14.59;52.18
74659;BME280;63186;51.204;6.536;2023-03-17T10:26:36;100413.81;;;15.17;49.07
74659;BME280;63186;51.204;6.536;2023-03-17T10:29:13;100401.63;;;14.45;49.31
74659;BME280;63186;51.204;6.536;2023-03-17T10:31:39;100400.34;;;14.18;51.69
74659;BME280;63186;51.204;6.536;2023-03-17T10:34:13;100404.34;;;13.96;51.93
74659;BME280;63186;51.204;6.536;2023-03-17T10:36:42;100412.22;;;13.73;52.61
74659;BME280;63186;51.204;6.536;2023-03-17T10:39:11;100398.09;;;13.33;53.03
74659;BME280;63186;51.204;6.536;2023-03-17T10:41:39;100392.66;;;13.24;54.15
74659;BME280;63186;51.204;6.536;2023-03-17T10:44:14;100388.84;;;13.29;54.22
74659;BME280;63186;51.204;6.536;2023-03-17T10:46:52;100386.47;;;13.61;53.63
74659;BME280;63186;51.204;6.536;2023-03-17T10:49:18;100386.56;;;13.97;53.49
74659;BME280;63186;51.204;6.536;2023-03-17T10:51:50;100379.81;;;14.31;51.08
74659;BME280;63186;51.204;6.536;2023-03-17T10:54:18;100382.63;;;14.56;50.75
74659;BME280;63186;51.204;6.536;2023-03-17T10:56:46;100387.28;;;15.04;51.05
74659;BME280;63186;51.204;6.536;2023-03-17T10:59:27;100380.28;;;15.35;48.60
74659;BME280;63186;51.204;6.536;2023-03-17T11:01:57;100375.38;;;15.44;48.79
74659;BME280;63186;51.204;6.536;2023-03-17T11:04:33;100364.03;;;15.21;49.28
74659;BME280;63186;51.204;6.536;2023-03-17T11:07:05;100362.44;;;15.08;49.28
74659;BME280;63186;51.204;6.536;2023-03-17T11:09:36;100366.19;;;15.00;48.52
74659;BME280;63186;51.204;6.536;2023-03-17T11:12:07;100371.53;;;15.20;51.27
74659;BME280;63186;51.204;6.536;2023-03-17T11:14:42;100367.88;;;15.72;48.98
74659;BME280;63186;51.204;6.536;2023-03-17T11:17:33;100363.38;;;15.68;47.94
74659;BME280;63186;51.204;6.536;2023-03-17T11:26:07;100356.84;;;15.32;50.17
74659;BME280;63186;51.204;6.536;2023-03-17T11:28:39;100350.28;;;15.53;50.03
74659;BME280;63186;51.204;6.536;2023-03-17T11:31:18;100342.19;;;15.76;50.35
74659;BME280;63186;51.204;6.536;2023-03-17T11:39:02;100336.00;;;15.82;50.08
74659;BME280;63186;51.204;6.536;2023-03-17T11:44:37;100330.34;;;15.63;49.39
74659;BME280;63186;51.204;6.536;2023-03-17T11:47:18;100325.75;;;15.55;49.87
74659;BME280;63186;51.204;6.536;2023-03-17T11:49:57;100322.50;;;15.81;50.74
74659;BME280;63186;51.204;6.536;2023-03-17T11:52:33;100323.03;;;15.86;49.38
74659;BME280;63186;51.204;6.536;2023-03-17T11:55:24;100322.69;;;15.72;49.55
74659;BME280;63186;51.204;6.536;2023-03-17T11:58:02;100327.22;;;15.64;50.79
74659;BME280;63186;51.204;6.536;2023-03-17T12:00:31;100326.69;;;15.74;50.72
74659;BME280;63186;51.204;6.536;2023-03-17T12:03:06;100327.75;;;15.70;50.10
74659;BME280;63186;51.204;6.536;2023-03-17T12:05:34;100318.38;;;15.74;50.21
74659;BME280;63186;51.204;6.536;2023-03-17T12:08:09;100312.38;;;15.72;51.22
74659;BME280;63186;51.204;6.536;2023-03-17T12:10:53;100318.81;;;15.77;50.49
74659;BME280;63186;51.204;6.536;2023-03-17T12:13:27;100320.44;;;15.93;51.04
74659;BME280;63186;51.204;6.536;2023-03-17T12:16:03;100313.66;;;16.07;49.92
74659;BME280;63186;51.204;6.536;2023-03-17T12:18:37;100324.03;;;16.10;49.46
74659;BME280;63186;51.204;6.536;2023-03-17T12:21:23;100315.41;;;15.83;50.91
74659;BME280;63186;51.204;6.536;2023-03-17T12:23:58;100306.72;;;15.69;52.06
74659;BME280;63186;51.204;6.536;2023-03-17T12:27:06;100320.59;;;15.69;50.37
74659;BME280;63186;51.204;6.536;2023-03-17T12:29:36;100316.22;;;15.84;51.06
74659;BME280;63186;51.204;6.536;2023-03-17T12:32:08;100308.91;;;15.91;51.90
74659;BME280;63186;51.204;6.536;2023-03-17T12:34:49;100310.16;;;15.78;50.99
74659;BME280;63186;51.204;6.536;2023-03-17T12:37:16;100306.75;;;15.85;51.24
74659;BME280;63186;51.204;6.536;2023-03-17T12:39:48;100301.28;;;15.88;49.92
74659;BME280;63186;51.204;6.536;2023-03-17T12:44:59;100295.53;;;15.97;50.90
74659;BME280;63186;51.204;6.536;2023-03-17T12:47:38;100287.22;;;15.97;50.58
74659;BME280;63186;51.204;6.536;2023-03-17T12:53:27;100285.06;;;15.90;50.33
74659;BME280;63186;51.204;6.536;2023-03-17T12:55:58;100284.88;;;15.83;51.00
74659;BME280;63186;51.204;6.536;2023-03-17T12:58:34;100281.16;;;15.91;50.65
74659;BME280;63186;51.204;6.536;2023-03-17T13:01:07;100281.16;;;15.91;50.26
74659;BME280;63186;51.204;6.536;2023-03-17T13:03:35;100282.59;;;15.85;49.33
74659;BME280;63186;51.204;6.536;2023-03-17T13:06:05;100285.25;;;15.82;49.61
74659;BME280;63186;51.204;6.536;2023-03-17T13:08:35;100276.41;;;15.92;49.52
74659;BME280;63186;51.204;6.536;2023-03-17T13:14:42;100267.25;;;16.07;48.79
74659;BME280;63186;51.204;6.536;2023-03-17T13:25:46;100265.63;;;16.06;48.92
74659;BME280;63186;51.204;6.536;2023-03-17T13:48:49;100262.81;;;16.22;49.91
74659;BME280;63186;51.204;6.536;2023-03-17T13:51:19;100258.06;;;16.22;48.80
74659;BME280;63186;51.204;6.536;2023-03-17T13:53:52;100267.94;;;16.20;48.41
74659;BME280;63186;51.204;6.536;2023-03-17T13:56:47;100269.66;;;16.24;48.63
74659;BME280;63186;51.204;6.536;2023-03-17T13:59:20;100269.66;;;16.24;49.34
74659;BME280;63186;51.204;6.536;2023-03-17T14:04:20;100247.22;;;16.33;49.13
74659;BME280;63186;51.204;6.536;2023-03-17T14:06:48;100244.22;;;16.42;49.24
74659;BME280;63186;51.204;6.536;2023-03-17T14:11:52;100236.78;;;16.46;50.64
74659;BME280;63186;51.204;6.536;2023-03-17T14:14:47;100233.06;;;16.38;50.05
74659;BME280;63186;51.204;6.536;2023-03-17T14:22:31;100219.88;;;16.35;51.12